Saint-Georges-De-Cacouna, Canada
Current Conditions -  °F | °C
As of 5:53 PM on Wednesday 26 Nov 2014 (Local Time) from KFVE Reporting Station
Overcast Overcast  
Wind Chill: 18°   Ceiling: 9000
Heat Index: 26°   Visibility: 10mi
Dew Point: 17°   Wind: 8mph
Humidity: 69%   Direction: 350°N
Pressure: 30.13"   Gusts: NA
Location:  47.92°N, 69.5°W
Report Text: KFVE 262253Z AUTO 35007KT 10SM OVC090 M03/M08 A3013 RMK AO2 SLP214 T10331083
Loading
Personal Weather Stations






























Interactive Weather Map New forecast layout! Learn more

10-Day Weather Forecast

Advertisements
Track Severe Weather on mobile